Portada
METAR-TAF:

METAR-TAF

Aeroports :

Base aèria

Landivisiau, França

latitud: 48-31N, longitud: 004-09W, altitud: 106 m

Observació

L'informe es va fer fa 31 minuts, a les 21:30 UTC
Vent 5 kt del Sud-Est, variant entre Est i Sud
Temperatura 20°C
Humitat 73%
Pressió 1013 hPa
Visibilitat 10 km o més
sense núvols per sota de 1500 mi sense presència de cumulonimbus.

METAR: LFRJ 232130Z AUTO 13005KT 100V170 CAVOK 20/15 Q1013

Hora: 00:01 (22:01 UTC)

Pronòstic

L'informe es va fer fa 4 hores i 44 minuts, a les 17:17 UTC
Pronòstic vàlid del 23 a les 18 UTC al 24 a les 03 UTC
Vent 6 kt del Nord-Oest
Visibilitat 10 km o més
sense núvols per sota de 1500 mi sense presència de cumulonimbus.
Temporalment
l' 23 a les 18 UTC al 23 a les 22 UTC
xàfecs de pluja

TAF: LFRJ 231717Z 2318/2403 31006KT CAVOK TEMPO 2318/2322 SHRA

Observacions i pronòstics meteorològics de més de 4000 aeroports (METAR i TAF).

Les estacions disponibles són els punts grocs i vermells al mapa.

Posi el ratolí al punt desitjat per veure el nom de l'estació.

Feu clic per veure les observacions i els pronòstics meteorològics.

Per canviar el mapa: feu clic els botons verds amb una creu de color negre per apropar; al botó verd amb un guió per allunyar la imatge; o en les fletxes verdes per a mapes adjacents.


METAR-TAF: